Time;durP1;ratioP1;P1;durP2;ratioP2;P2;SDS_P1;SDS_P2;PMS_P1;PMS_P2;Temp;Humidity;BMP_temperature;BMP_pressure;BME280_temperature;BME280_humidity;BME280_pressure;Samples;Min_cycle;Max_cycle;Signal;HPM_P1;HPM_P2
2020/12/21 00:00:31;;;;;;;5.32;2.00;;;7.20;90.90;;;;;;2062822;28;20050;-81
2020/12/21 00:01:37;;;;;;;5.85;2.00;;;7.20;90.90;;;;;;2057320;28;20027;-81
2020/12/21 00:02:38;;;;;;;4.93;1.95;;;7.20;90.90;;;;;;2055046;28;20031;-81
2020/12/21 00:03:39;;;;;;;7.35;2.50;;;7.20;90.90;;;;;;2048565;28;20057;-81
2020/12/21 00:04:40;;;;;;;4.30;1.77;;;7.20;91.00;;;;;;2055172;28;20038;-80
2020/12/21 00:05:41;;;;;;;7.78;2.63;;;7.20;91.00;;;;;;2055864;28;20023;-81
2020/12/21 00:06:42;;;;;;;6.35;2.17;;;7.20;91.00;;;;;;2063442;28;20086;-80
2020/12/21 00:07:43;;;;;;;7.97;2.25;;;7.20;91.00;;;;;;2056515;28;20038;-81
2020/12/21 00:08:43;;;;;;;4.93;1.88;;;7.10;91.00;;;;;;2056026;28;20051;-81
2020/12/21 00:09:44;;;;;;;6.97;2.10;;;7.10;91.00;;;;;;2059381;28;20504;-81
2020/12/21 00:10:45;;;;;;;4.40;1.92;;;7.10;91.00;;;;;;2049489;28;20031;-81
2020/12/21 00:11:46;;;;;;;5.18;2.05;;;7.10;91.00;;;;;;2046654;28;20031;-81
2020/12/21 00:12:48;;;;;;;4.55;1.88;;;7.10;91.00;;;;;;2047255;28;20031;-82
2020/12/21 00:13:48;;;;;;;6.75;2.00;;;7.10;91.10;;;;;;2056612;28;20050;-81
2020/12/21 00:14:49;;;;;;;6.85;2.13;;;7.10;91.00;;;;;;2049438;28;20127;-80
2020/12/21 00:15:49;;;;;;;5.13;2.28;;;7.10;91.10;;;;;;2056539;28;20369;-81
2020/12/21 00:16:52;;;;;;;6.65;1.92;;;7.10;91.10;;;;;;2048581;28;20023;-80
2020/12/21 00:17:52;;;;;;;7.38;2.38;;;7.00;91.00;;;;;;2033889;28;20112;-81
2020/12/21 00:18:53;;;;;;;6.30;2.30;;;7.00;91.10;;;;;;2049153;29;20493;-81
2020/12/21 00:19:54;;;;;;;6.10;2.28;;;7.00;91.10;;;;;;2041177;29;20031;-81
2020/12/21 00:20:54;;;;;;;5.72;2.00;;;7.00;91.10;;;;;;2041474;29;20435;-80
2020/12/21 00:21:55;;;;;;;6.47;2.13;;;7.00;91.10;;;;;;2049261;28;20063;-81
2020/12/21 00:22:55;;;;;;;6.53;2.10;;;7.00;91.10;;;;;;2049544;29;20027;-81
2020/12/21 00:23:56;;;;;;;5.78;1.90;;;7.00;91.10;;;;;;2051605;28;20141;-81
2020/12/21 00:24:57;;;;;;;6.53;2.10;;;6.90;91.10;;;;;;2057479;28;20015;-80
2020/12/21 00:25:57;;;;;;;5.88;2.08;;;7.00;91.20;;;;;;2049472;28;20094;-81
2020/12/21 00:26:58;;;;;;;5.20;1.95;;;7.00;91.20;;;;;;2054992;28;20476;-80
2020/12/21 00:27:58;;;;;;;4.82;1.73;;;6.90;91.10;;;;;;2057453;28;20081;-81
2020/12/21 00:28:59;;;;;;;6.95;2.00;;;6.90;91.20;;;;;;2048960;28;20054;-81
2020/12/21 00:30:00;;;;;;;5.03;1.98;;;6.90;91.20;;;;;;2048986;28;20031;-80
2020/12/21 00:31:01;;;;;;;6.63;2.40;;;6.90;91.20;;;;;;2057991;28;20046;-81
2020/12/21 00:32:02;;;;;;;6.82;2.22;;;6.90;91.20;;;;;;2056607;28;20362;-81
2020/12/21 00:33:02;;;;;;;4.85;1.88;;;6.90;91.20;;;;;;2051708;28;20038;-81
2020/12/21 00:34:05;;;;;;;5.07;1.88;;;6.90;91.20;;;;;;2049564;28;20481;-82
2020/12/21 00:35:05;;;;;;;6.20;2.00;;;6.90;91.20;;;;;;2052134;28;20046;-81
2020/12/21 00:36:06;;;;;;;5.40;2.10;;;6.90;91.20;;;;;;2049065;29;20565;-81
2020/12/21 00:37:07;;;;;;;4.53;1.95;;;6.90;91.20;;;;;;2049382;29;20031;-82
2020/12/21 00:38:08;;;;;;;6.82;2.15;;;6.80;91.20;;;;;;2041381;29;20450;-81
2020/12/21 00:39:09;;;;;;;6.25;2.35;;;6.80;91.20;;;;;;2045080;29;20035;-81
2020/12/21 00:40:10;;;;;;;5.38;2.13;;;6.80;91.20;;;;;;2049132;28;20035;-82
2020/12/21 00:41:15;;;;;;;6.57;2.22;;;6.80;91.30;;;;;;2057216;28;20481;-81
2020/12/21 00:42:15;;;;;;;5.97;2.15;;;6.80;91.20;;;;;;2049549;28;20028;-81
2020/12/21 00:43:16;;;;;;;6.47;2.15;;;6.80;91.30;;;;;;2056507;28;20085;-81
2020/12/21 00:44:17;;;;;;;5.65;1.98;;;6.80;91.30;;;;;;2050832;28;20055;-81
2020/12/21 00:45:17;;;;;;;7.28;2.20;;;6.80;91.30;;;;;;2041935;28;20122;-81
2020/12/21 00:46:22;;;;;;;6.28;2.10;;;6.80;91.30;;;;;;2040779;29;20035;-81
2020/12/21 00:47:22;;;;;;;6.13;2.30;;;6.80;91.30;;;;;;2044213;28;20039;-81
2020/12/21 00:48:23;;;;;;;6.03;2.00;;;6.70;91.30;;;;;;2048182;29;20031;-81
2020/12/21 00:49:24;;;;;;;4.90;1.92;;;6.70;91.30;;;;;;2044043;29;20038;-81
2020/12/21 00:50:24;;;;;;;6.30;2.10;;;6.70;91.30;;;;;;2056880;28;20034;-81
2020/12/21 00:51:25;;;;;;;4.32;1.90;;;6.70;91.30;;;;;;2048339;28;20031;-81
2020/12/21 00:52:26;;;;;;;6.50;2.13;;;6.70;91.30;;;;;;2057294;28;20074;-81
2020/12/21 00:53:27;;;;;;;4.93;1.90;;;6.70;91.30;;;;;;2048965;28;20449;-81
2020/12/21 00:54:27;;;;;;;5.25;2.25;;;6.70;91.30;;;;;;2040469;28;20127;-81
2020/12/21 00:55:28;;;;;;;5.15;2.08;;;6.70;91.30;;;;;;2049206;29;20461;-81
2020/12/21 00:56:29;;;;;;;7.43;2.35;;;6.70;91.30;;;;;;2048256;28;20125;-81
2020/12/21 00:57:33;;;;;;;6.25;1.90;;;6.70;91.40;;;;;;2057032;28;20023;-81
2020/12/21 00:58:35;;;;;;;5.68;2.10;;;6.70;91.40;;;;;;2048923;28;20146;-81
2020/12/21 00:59:36;;;;;;;5.80;2.30;;;6.70;91.40;;;;;;2048375;28;20031;-81
2020/12/21 01:00:37;;;;;;;7.57;2.40;;;6.70;91.40;;;;;;2047519;28;20038;-81
2020/12/21 01:01:37;;;;;;;6.03;2.35;;;6.70;91.30;;;;;;2040753;29;20035;-81
2020/12/21 01:02:39;;;;;;;6.25;2.15;;;6.70;91.40;;;;;;2056947;28;20042;-81
2020/12/21 01:03:39;;;;;;;4.22;1.98;;;6.70;91.40;;;;;;2064264;28;20026;-81
2020/12/21 01:04:40;;;;;;;5.90;2.00;;;6.70;91.40;;;;;;2057182;28;20498;-81
2020/12/21 01:05:41;;;;;;;5.18;2.13;;;6.70;91.30;;;;;;2048771;28;20055;-81
2020/12/21 01:06:41;;;;;;;4.82;2.28;;;6.70;91.40;;;;;;2045285;28;20031;-81
2020/12/21 01:07:42;;;;;;;5.15;2.08;;;6.70;91.30;;;;;;2041058;29;20503;-81
2020/12/21 01:08:45;;;;;;;5.05;2.00;;;6.70;91.30;;;;;;2041143;29;20032;-81
2020/12/21 01:09:46;;;;;;;5.38;1.92;;;6.70;91.40;;;;;;2041515;29;20122;-80
2020/12/21 01:10:47;;;;;;;5.00;1.88;;;6.70;91.30;;;;;;2043217;28;20038;-81
2020/12/21 01:11:47;;;;;;;5.88;1.90;;;6.70;91.30;;;;;;2032651;29;20032;-81
2020/12/21 01:12:48;;;;;;;6.18;2.10;;;6.70;91.40;;;;;;2044039;28;20059;-81
2020/12/21 01:13:49;;;;;;;5.47;2.15;;;6.70;91.40;;;;;;2056785;28;20031;-81
2020/12/21 01:14:51;;;;;;;6.00;1.95;;;6.70;91.40;;;;;;2049056;28;20070;-81
2020/12/21 01:15:51;;;;;;;4.45;1.92;;;6.70;91.40;;;;;;2040969;29;20028;-82
2020/12/21 01:16:53;;;;;;;5.47;1.90;;;6.70;91.40;;;;;;2049120;28;20511;-81
2020/12/21 01:17:54;;;;;;;5.43;1.77;;;6.70;91.40;;;;;;2057605;28;20051;-81
2020/12/21 01:18:54;;;;;;;5.53;1.98;;;6.60;91.40;;;;;;2054542;28;20535;-81
2020/12/21 01:19:55;;;;;;;6.22;2.08;;;6.60;91.40;;;;;;2048765;29;20035;-81
2020/12/21 01:20:55;;;;;;;5.22;1.92;;;6.70;91.50;;;;;;2055092;28;20398;-81
2020/12/21 01:21:57;;;;;;;5.95;1.92;;;6.60;91.40;;;;;;2048445;28;20127;-81
2020/12/21 01:22:57;;;;;;;5.28;1.90;;;6.60;91.40;;;;;;2047484;28;20166;-81
2020/12/21 01:23:59;;;;;;;6.90;2.00;;;6.60;91.50;;;;;;2056289;28;20038;-81
2020/12/21 01:25:00;;;;;;;5.63;1.90;;;6.60;91.50;;;;;;2056581;28;20031;-81
2020/12/21 01:26:00;;;;;;;4.65;1.83;;;6.60;91.50;;;;;;2040623;29;20035;-81
2020/12/21 01:27:01;;;;;;;6.75;2.17;;;6.60;91.50;;;;;;2032361;29;20032;-81
2020/12/21 01:28:04;;;;;;;5.03;1.92;;;6.60;91.80;;;;;;2049001;28;20025;-81
2020/12/21 01:29:04;;;;;;;5.88;2.15;;;6.60;91.50;;;;;;2052192;28;20023;-81
2020/12/21 01:30:05;;;;;;;5.75;1.88;;;6.60;91.50;;;;;;2047092;28;20046;-81
2020/12/21 01:31:06;;;;;;;7.38;1.80;;;6.60;91.80;;;;;;2049025;28;20070;-81
2020/12/21 01:32:06;;;;;;;5.82;1.95;;;6.60;91.50;;;;;;2053582;28;20474;-81
2020/12/21 01:33:07;;;;;;;5.53;2.30;;;6.60;91.50;;;;;;2048855;28;20035;-81
2020/12/21 01:34:08;;;;;;;5.70;2.40;;;6.60;91.50;;;;;;2040406;29;20142;-82
2020/12/21 01:35:08;;;;;;;6.53;1.98;;;6.50;91.50;;;;;;2040157;29;20051;-81
2020/12/21 01:36:09;;;;;;;6.20;1.73;;;6.50;91.50;;;;;;2033076;29;20032;-81
2020/12/21 01:37:10;;;;;;;5.63;1.95;;;6.50;91.50;;;;;;2033165;29;20028;-81
2020/12/21 01:38:10;;;;;;;6.10;2.05;;;6.50;91.60;;;;;;2040765;29;20031;-81
2020/12/21 01:39:11;;;;;;;5.30;1.95;;;6.50;91.60;;;;;;2053694;28;20027;-81
2020/12/21 01:40:12;;;;;;;5.22;1.95;;;6.50;91.60;;;;;;2057394;28;20121;-81
2020/12/21 01:41:13;;;;;;;4.43;1.80;;;6.50;91.60;;;;;;2048476;29;20038;-81
2020/12/21 01:42:15;;;;;;;4.93;1.85;;;6.50;91.60;;;;;;2048442;28;20040;-81
2020/12/21 01:43:16;;;;;;;6.50;1.95;;;6.50;91.60;;;;;;2044997;29;20024;-81
2020/12/21 01:44:17;;;;;;;6.28;2.00;;;6.50;91.60;;;;;;2041781;28;20039;-81
2020/12/21 01:45:18;;;;;;;6.13;2.00;;;6.50;91.60;;;;;;2048705;28;20532;-81
2020/12/21 01:46:19;;;;;;;4.65;1.90;;;6.50;91.60;;;;;;2041398;28;20024;-81
2020/12/21 01:47:21;;;;;;;4.60;1.90;;;6.50;91.60;;;;;;2046713;28;20430;-81
2020/12/21 01:48:21;;;;;;;5.43;1.88;;;6.50;91.60;;;;;;2040968;29;20563;-81
2020/12/21 01:49:22;;;;;;;6.50;1.98;;;6.50;91.60;;;;;;2040466;29;20016;-81
2020/12/21 01:50:23;;;;;;;8.02;1.83;;;6.50;91.60;;;;;;2056857;28;20031;-81
2020/12/21 01:51:27;;;;;;;4.10;1.73;;;6.50;91.60;;;;;;2056641;28;20118;-81
2020/12/21 01:52:28;;;;;;;5.68;1.70;;;6.50;91.60;;;;;;2055624;28;20033;-81
2020/12/21 01:53:28;;;;;;;5.65;1.60;;;6.50;91.60;;;;;;2056038;28;20391;-81
2020/12/21 01:54:30;;;;;;;4.68;1.65;;;6.50;91.60;;;;;;2048357;28;20131;-81
2020/12/21 01:55:32;;;;;;;5.03;2.00;;;6.50;91.60;;;;;;2033041;29;20024;-81
2020/12/21 01:56:35;;;;;;;3.90;2.05;;;6.50;91.60;;;;;;2033465;29;20079;-81
2020/12/21 01:57:39;;;;;;;4.88;1.77;;;6.50;91.60;;;;;;2041009;29;20031;-81
2020/12/21 01:58:39;;;;;;;4.55;1.73;;;6.40;91.60;;;;;;2038285;29;20042;-81
2020/12/21 01:59:40;;;;;;;6.82;1.80;;;6.40;91.60;;;;;;2032021;29;20470;-81
2020/12/21 02:00:42;;;;;;;4.63;1.75;;;6.40;91.60;;;;;;2038595;29;20042;-81
2020/12/21 02:01:44;;;;;;;5.40;1.85;;;6.40;91.60;;;;;;2054538;28;20039;-81
2020/12/21 02:02:46;;;;;;;5.53;2.05;;;6.40;91.90;;;;;;2055969;28;20030;-81
2020/12/21 02:03:48;;;;;;;5.45;1.90;;;6.40;91.60;;;;;;2028233;29;20032;-81
2020/12/21 02:04:49;;;;;;;5.22;1.90;;;6.40;91.70;;;;;;2033330;29;20118;-81
2020/12/21 02:05:50;;;;;;;6.88;1.88;;;6.40;91.70;;;;;;2048721;29;20462;-81
2020/12/21 02:06:51;;;;;;;5.50;1.67;;;6.40;91.70;;;;;;2055691;28;20034;-81
2020/12/21 02:07:52;;;;;;;5.40;2.17;;;6.40;91.70;;;;;;2056180;28;20023;-81
2020/12/21 02:08:53;;;;;;;5.32;1.55;;;6.40;91.70;;;;;;2048198;28;20027;-81
2020/12/21 02:09:54;;;;;;;4.30;1.45;;;6.40;91.70;;;;;;2056838;28;20019;-81
2020/12/21 02:10:54;;;;;;;3.50;1.50;;;6.40;91.70;;;;;;2054397;28;20037;-81
2020/12/21 02:11:55;;;;;;;6.60;2.15;;;6.40;91.70;;;;;;2054818;28;20082;-80
2020/12/21 02:12:56;;;;;;;3.58;1.40;;;6.40;91.70;;;;;;2056027;28;20113;-81
2020/12/21 02:13:56;;;;;;;4.57;1.65;;;6.40;91.70;;;;;;2056258;28;20058;-81
2020/12/21 02:14:57;;;;;;;5.18;1.73;;;6.40;91.70;;;;;;2060450;28;20069;-81
2020/12/21 02:15:58;;;;;;;3.38;1.45;;;6.40;91.70;;;;;;2046168;28;20031;-81
2020/12/21 02:16:59;;;;;;;5.38;1.60;;;6.40;91.70;;;;;;2031242;29;20039;-81
2020/12/21 02:18:00;;;;;;;5.78;1.73;;;6.40;91.70;;;;;;2040702;29;20039;-80
2020/12/21 02:19:00;;;;;;;4.82;1.83;;;6.40;91.70;;;;;;2033142;29;20032;-81
2020/12/21 02:20:02;;;;;;;7.28;2.05;;;6.40;91.70;;;;;;2036525;28;20115;-81
2020/12/21 02:21:03;;;;;;;6.80;2.00;;;6.40;91.70;;;;;;2055928;28;20042;-81
2020/12/21 02:22:03;;;;;;;6.18;1.77;;;6.40;91.70;;;;;;2040359;29;20577;-81
2020/12/21 02:23:04;;;;;;;4.95;1.85;;;6.40;91.70;;;;;;2032210;29;20039;-81
2020/12/21 02:24:05;;;;;;;6.97;1.92;;;6.40;91.70;;;;;;2040505;29;20027;-81
2020/12/21 02:25:06;;;;;;;5.28;1.50;;;6.40;91.60;;;;;;2048714;28;20156;-81
2020/12/21 02:26:06;;;;;;;5.45;1.70;;;6.50;91.60;;;;;;2048745;29;20527;-81
2020/12/21 02:27:07;;;;;;;5.55;1.60;;;6.50;91.60;;;;;;2048690;28;20174;-81
2020/12/21 02:28:08;;;;;;;5.57;1.70;;;6.50;91.60;;;;;;2056748;28;20034;-81
2020/12/21 02:29:09;;;;;;;4.78;1.77;;;6.50;91.60;;;;;;2046334;29;20027;-81
2020/12/21 02:30:11;;;;;;;4.95;1.50;;;6.50;91.60;;;;;;2048007;28;20019;-81
2020/12/21 02:31:11;;;;;;;3.45;1.65;;;6.50;91.60;;;;;;2049294;28;20023;-82
2020/12/21 02:32:12;;;;;;;6.38;2.10;;;6.50;91.60;;;;;;2054302;28;20042;-81
2020/12/21 02:33:13;;;;;;;4.15;1.48;;;6.50;91.90;;;;;;2039227;29;20046;-81
2020/12/21 02:34:19;;;;;;;5.75;1.80;;;6.50;91.60;;;;;;2038738;29;20150;-81
2020/12/21 02:35:19;;;;;;;5.15;1.88;;;6.50;91.60;;;;;;2041534;29;20035;-81
2020/12/21 02:36:20;;;;;;;5.85;1.92;;;6.50;91.60;;;;;;2051528;28;20027;-81
2020/12/21 02:37:21;;;;;;;6.30;2.05;;;6.50;91.60;;;;;;2054895;28;20477;-81
2020/12/21 02:38:21;;;;;;;5.90;1.70;;;6.50;91.60;;;;;;2055006;28;20122;-81
2020/12/21 02:39:23;;;;;;;4.80;1.73;;;6.50;91.60;;;;;;2056575;28;20117;-81
2020/12/21 02:40:24;;;;;;;4.75;1.45;;;6.50;91.60;;;;;;2056432;28;20054;-81
2020/12/21 02:41:24;;;;;;;3.45;1.58;;;6.50;91.60;;;;;;2047724;28;20023;-81
2020/12/21 02:42:25;;;;;;;5.07;1.77;;;6.50;91.60;;;;;;2032392;29;20523;-81
2020/12/21 02:43:25;;;;;;;4.40;1.63;;;6.50;91.60;;;;;;2040461;29;20098;-81
2020/12/21 02:44:26;;;;;;;4.60;1.42;;;6.50;91.60;;;;;;2047615;29;20481;-81
2020/12/21 02:45:27;;;;;;;4.72;1.60;;;6.50;91.60;;;;;;2056575;28;20026;-81
2020/12/21 02:46:27;;;;;;;4.15;1.48;;;6.50;91.60;;;;;;2056321;28;20488;-81
2020/12/21 02:47:28;;;;;;;5.47;1.98;;;6.50;91.60;;;;;;2056556;28;20463;-82
2020/12/21 02:48:29;;;;;;;6.43;1.85;;;6.50;91.60;;;;;;2055274;28;20029;-81
2020/12/21 02:49:29;;;;;;;5.13;1.70;;;6.40;91.60;;;;;;2048542;28;20118;-81
2020/12/21 02:50:30;;;;;;;4.00;1.42;;;6.40;91.60;;;;;;2047933;29;20430;-81
2020/12/21 02:51:30;;;;;;;4.20;1.60;;;6.50;91.70;;;;;;2040354;29;20542;-81
2020/12/21 02:52:31;;;;;;;4.35;1.45;;;6.50;91.70;;;;;;2040737;29;20467;-81
2020/12/21 02:53:32;;;;;;;6.45;1.98;;;6.40;91.60;;;;;;2048441;28;20093;-81
2020/12/21 02:54:32;;;;;;;4.10;1.48;;;6.40;91.70;;;;;;2045812;28;20015;-81
2020/12/21 02:55:33;;;;;;;3.95;1.50;;;6.40;91.70;;;;;;2048589;29;20032;-82
2020/12/21 02:56:34;;;;;;;3.88;1.60;;;6.40;91.70;;;;;;2045337;28;20031;-81
2020/12/21 02:57:34;;;;;;;4.70;1.50;;;6.40;92.00;;;;;;2039188;29;20031;-82
2020/12/21 02:58:35;;;;;;;4.03;1.50;;;6.40;91.70;;;;;;2037561;29;20067;-82
2020/12/21 02:59:35;;;;;;;4.70;1.90;;;6.40;91.70;;;;;;2022856;29;20436;-82
2020/12/21 03:00:36;;;;;;;6.18;1.83;;;6.40;91.70;;;;;;2032783;29;20140;-82
2020/12/21 03:01:37;;;;;;;3.70;1.50;;;6.40;91.70;;;;;;2048471;29;20500;-82
2020/12/21 03:02:37;;;;;;;4.85;1.40;;;6.40;91.80;;;;;;2048056;28;20118;-81
2020/12/21 03:03:38;;;;;;;4.50;1.85;;;6.40;91.80;;;;;;2046593;28;20548;-81
2020/12/21 03:04:39;;;;;;;4.93;1.63;;;6.40;91.80;;;;;;2046246;28;20421;-81
2020/12/21 03:05:39;;;;;;;6.25;1.85;;;6.30;91.80;;;;;;2048356;28;20597;-81
2020/12/21 03:06:40;;;;;;;6.05;1.80;;;6.30;91.80;;;;;;2034355;28;20495;-81
2020/12/21 03:07:41;;;;;;;4.03;1.50;;;6.30;91.80;;;;;;2041189;29;20491;-81
2020/12/21 03:08:42;;;;;;;6.50;2.10;;;6.30;91.80;;;;;;2056225;28;20505;-81
2020/12/21 03:09:42;;;;;;;5.88;1.98;;;6.30;91.80;;;;;;2050907;28;20034;-81
2020/12/21 03:10:43;;;;;;;5.72;1.83;;;6.30;91.80;;;;;;2040410;29;20056;-81
2020/12/21 03:11:47;;;;;;;5.93;1.92;;;6.30;91.80;;;;;;2048347;29;20035;-81
2020/12/21 03:12:48;;;;;;;3.78;1.40;;;6.30;91.80;;;;;;2050409;28;20027;-81
2020/12/21 03:13:48;;;;;;;4.38;1.63;;;6.30;91.80;;;;;;2055874;28;20478;-81
2020/12/21 03:14:49;;;;;;;4.03;1.40;;;6.30;91.80;;;;;;2044011;29;20038;-81
2020/12/21 03:15:50;;;;;;;6.10;1.63;;;6.30;91.80;;;;;;2042184;29;20488;-81
2020/12/21 03:16:50;;;;;;;5.43;1.73;;;6.30;91.80;;;;;;2043231;29;20031;-80
2020/12/21 03:17:51;;;;;;;5.60;1.60;;;6.30;91.80;;;;;;2041948;29;20028;-81
2020/12/21 03:18:52;;;;;;;3.72;1.50;;;6.30;91.80;;;;;;2057062;28;20031;-81
2020/12/21 03:19:52;;;;;;;4.10;1.60;;;6.30;91.80;;;;;;2058047;28;20125;-81
2020/12/21 03:20:53;;;;;;;3.88;1.50;;;6.30;91.80;;;;;;2042155;28;20070;-81
2020/12/21 03:21:53;;;;;;;4.75;1.70;;;6.20;91.80;;;;;;2050516;28;20035;-81
2020/12/21 03:22:54;;;;;;;5.03;1.48;;;6.30;91.80;;;;;;2057872;28;20034;-81
2020/12/21 03:23:55;;;;;;;3.53;1.50;;;6.30;91.80;;;;;;2056085;28;20174;-81
2020/12/21 03:24:56;;;;;;;4.45;1.63;;;6.20;91.80;;;;;;2056212;28;20038;-81
2020/12/21 03:25:57;;;;;;;4.35;1.40;;;6.20;91.80;;;;;;2050612;28;20501;-81
2020/12/21 03:26:58;;;;;;;3.33;1.33;;;6.20;91.90;;;;;;2049723;28;20031;-81
2020/12/21 03:27:58;;;;;;;4.72;1.73;;;6.20;91.80;;;;;;2057320;28;20065;-82
2020/12/21 03:28:59;;;;;;;5.88;1.70;;;6.20;91.90;;;;;;2055275;28;20061;-81
2020/12/21 03:30:00;;;;;;;4.15;1.70;;;6.20;91.90;;;;;;2056653;28;20046;-80
2020/12/21 03:31:00;;;;;;;4.68;1.50;;;6.20;91.80;;;;;;2049840;28;20072;-81
2020/12/21 03:32:01;;;;;;;5.93;1.73;;;6.20;91.80;;;;;;2034279;29;20060;-81
2020/12/21 03:33:01;;;;;;;4.40;1.52;;;6.30;91.90;;;;;;2041722;29;20110;-81
2020/12/21 03:34:02;;;;;;;6.60;1.90;;;6.20;91.80;;;;;;2055095;28;20051;-81
2020/12/21 03:35:06;;;;;;;4.57;1.60;;;6.30;91.90;;;;;;2049876;28;20039;-81
2020/12/21 03:36:06;;;;;;;3.90;1.40;;;6.30;91.90;;;;;;2049907;29;20028;-81
2020/12/21 03:37:07;;;;;;;5.85;1.83;;;6.30;91.90;;;;;;2056170;28;20093;-80
2020/12/21 03:38:07;;;;;;;4.47;1.52;;;6.30;91.90;;;;;;2057933;28;20149;-81
2020/12/21 03:39:08;;;;;;;3.45;1.35;;;6.20;91.80;;;;;;2059604;28;20069;-80
2020/12/21 03:40:09;;;;;;;4.25;1.17;;;6.30;91.80;;;;;;2046130;29;20079;-81
2020/12/21 03:41:10;;;;;;;2.45;1.30;;;6.30;91.90;;;;;;2052997;28;20117;-80
2020/12/21 03:42:10;;;;;;;4.45;1.70;;;6.30;91.90;;;;;;2054607;28;20489;-80
2020/12/21 03:43:11;;;;;;;4.90;1.33;;;6.30;91.90;;;;;;2057895;28;20019;-81
2020/12/21 03:44:12;;;;;;;5.45;1.38;;;6.30;91.90;;;;;;2049399;28;20027;-80
2020/12/21 03:45:12;;;;;;;5.35;1.70;;;6.30;91.90;;;;;;2049850;28;20031;-80
2020/12/21 03:46:13;;;;;;;4.18;1.50;;;6.20;91.90;;;;;;2056611;28;20118;-81
2020/12/21 03:47:13;;;;;;;4.60;1.40;;;6.20;91.90;;;;;;2052793;28;20035;-81
2020/12/21 03:48:14;;;;;;;4.28;1.45;;;6.30;91.90;;;;;;2041968;29;20028;-81
2020/12/21 03:49:15;;;;;;;4.32;1.38;;;6.30;91.90;;;;;;2049957;28;20374;-80
2020/12/21 03:50:18;;;;;;;4.05;1.70;;;6.30;91.90;;;;;;2057783;28;20042;-81
2020/12/21 03:51:19;;;;;;;7.07;1.98;;;6.30;91.90;;;;;;2057737;28;20030;-81
2020/12/21 03:52:19;;;;;;;6.10;1.80;;;6.30;91.90;;;;;;2054154;28;20066;-81
2020/12/21 03:53:20;;;;;;;4.72;1.70;;;6.30;91.90;;;;;;2055952;28;20023;-80
2020/12/21 03:54:22;;;;;;;4.15;1.60;;;6.20;91.90;;;;;;2057165;28;20070;-80
2020/12/21 03:55:22;;;;;;;3.88;1.35;;;6.30;91.90;;;;;;2055981;28;20023;-81
2020/12/21 03:56:28;;;;;;;4.57;1.60;;;6.30;91.90;;;;;;2056441;28;20054;-81
2020/12/21 03:57:29;;;;;;;5.15;1.92;;;6.20;91.90;;;;;;2060719;28;20026;-80
2020/12/21 03:58:30;;;;;;;4.85;1.50;;;6.30;91.90;;;;;;2059376;28;20458;-80
2020/12/21 03:59:30;;;;;;;5.60;1.77;;;6.20;91.90;;;;;;2056468;28;20027;-80
2020/12/21 04:00:31;;;;;;;4.55;1.30;;;6.30;91.90;;;;;;2050088;28;20074;-81
2020/12/21 04:01:32;;;;;;;4.10;1.20;;;6.30;91.90;;;;;;2040725;29;20035;-80
2020/12/21 04:02:34;;;;;;;6.43;2.03;;;6.30;91.90;;;;;;2056173;28;20030;-80
2020/12/21 04:03:34;;;;;;;4.93;1.27;;;6.20;91.90;;;;;;2057797;28;20081;-82
2020/12/21 04:04:35;;;;;;;4.68;1.40;;;6.30;91.90;;;;;;2048096;29;20518;-80
2020/12/21 04:05:35;;;;;;;3.50;1.35;;;6.30;91.90;;;;;;2047972;29;20036;-80
2020/12/21 04:06:37;;;;;;;4.15;1.42;;;6.30;91.90;;;;;;2064060;28;20058;-80
2020/12/21 04:07:37;;;;;;;5.10;1.40;;;6.30;91.90;;;;;;2064809;28;20038;-82
2020/12/21 04:08:38;;;;;;;4.25;1.35;;;6.30;91.90;;;;;;2063400;28;20027;-81
2020/12/21 04:09:38;;;;;;;6.03;1.48;;;6.30;91.90;;;;;;2051241;28;20193;-81
2020/12/21 04:10:40;;;;;;;4.13;1.20;;;6.30;91.90;;;;;;2045030;29;20035;-81
2020/12/21 04:11:41;;;;;;;4.80;1.50;;;6.30;91.90;;;;;;2041085;28;20062;-81
2020/12/21 04:12:41;;;;;;;4.53;1.58;;;6.30;91.90;;;;;;2041232;29;20042;-81
2020/12/21 04:13:42;;;;;;;3.67;1.30;;;6.30;91.90;;;;;;2047791;28;20023;-80
2020/12/21 04:14:42;;;;;;;5.35;1.70;;;6.30;91.90;;;;;;2046045;29;20035;-80
2020/12/21 04:15:43;;;;;;;3.72;1.48;;;6.30;91.90;;;;;;2049193;28;20509;-81
2020/12/21 04:16:44;;;;;;;3.70;1.50;;;6.30;91.90;;;;;;2056958;28;20069;-81
2020/12/21 04:17:44;;;;;;;6.18;1.50;;;6.30;91.90;;;;;;2041592;29;20030;-81
2020/12/21 04:18:45;;;;;;;4.13;1.42;;;6.30;91.90;;;;;;2027596;29;20044;-80
2020/12/21 04:19:46;;;;;;;3.58;1.50;;;6.30;91.90;;;;;;2035874;29;20083;-80
2020/12/21 04:20:47;;;;;;;5.40;1.60;;;6.30;91.90;;;;;;2031508;29;20043;-81
2020/12/21 04:21:47;;;;;;;4.22;1.40;;;6.30;91.90;;;;;;2037539;28;20020;-81
2020/12/21 04:22:48;;;;;;;4.35;1.30;;;6.20;91.90;;;;;;2057217;28;20045;-81
2020/12/21 04:23:48;;;;;;;5.25;1.90;;;6.20;91.90;;;;;;2057154;28;20026;-81
2020/12/21 04:24:49;;;;;;;2.78;1.20;;;6.20;91.90;;;;;;2060028;28;20019;-81
2020/12/21 04:25:50;;;;;;;3.83;1.30;;;6.20;91.90;;;;;;2052894;28;20065;-81
2020/12/21 04:26:50;;;;;;;4.78;1.42;;;6.20;91.90;;;;;;2056678;29;20036;-81
2020/12/21 04:27:51;;;;;;;4.40;1.55;;;6.20;91.90;;;;;;2057120;29;20041;-81
2020/12/21 04:28:52;;;;;;;5.70;1.45;;;6.20;91.90;;;;;;2049116;29;20024;-82
2020/12/21 04:29:52;;;;;;;3.28;1.42;;;6.20;91.90;;;;;;2053739;29;20027;-80
2020/12/21 04:30:53;;;;;;;5.25;1.50;;;6.20;91.90;;;;;;2050970;29;20560;-81
2020/12/21 04:31:55;;;;;;;3.40;1.30;;;6.20;91.90;;;;;;2045441;29;20038;-80
2020/12/21 04:32:56;;;;;;;3.78;1.20;;;6.20;91.90;;;;;;2041379;29;20039;-81
2020/12/21 04:33:56;;;;;;;5.25;1.80;;;6.20;91.90;;;;;;2037200;29;20052;-81
2020/12/21 04:34:57;;;;;;;4.03;1.50;;;6.30;91.90;;;;;;2041656;28;20036;-81
2020/12/21 04:35:58;;;;;;;4.00;1.38;;;6.30;91.90;;;;;;2041554;29;20036;-81
2020/12/21 04:36:58;;;;;;;4.63;1.30;;;6.20;91.90;;;;;;2049104;29;20059;-80
2020/12/21 04:37:59;;;;;;;2.85;1.20;;;6.30;91.90;;;;;;2048282;29;20035;-81
2020/12/21 04:39:00;;;;;;;3.63;1.27;;;6.30;91.90;;;;;;2041041;29;20027;-81
2020/12/21 04:40:00;;;;;;;3.20;1.35;;;6.20;91.90;;;;;;2046668;28;20044;-81
2020/12/21 04:41:01;;;;;;;4.80;1.52;;;6.20;91.90;;;;;;2049048;28;20122;-80
2020/12/21 04:42:02;;;;;;;4.07;1.27;;;6.30;91.90;;;;;;2056527;28;20038;-80
2020/12/21 04:43:02;;;;;;;4.47;1.38;;;6.20;91.90;;;;;;2058028;28;20031;-80
2020/12/21 04:44:05;;;;;;;4.60;1.30;;;6.20;91.90;;;;;;2057857;28;20185;-81
2020/12/21 04:45:05;;;;;;;4.68;1.55;;;6.20;91.90;;;;;;2055574;28;20129;-80
2020/12/21 04:46:08;;;;;;;3.97;1.33;;;6.20;91.90;;;;;;2051132;28;20043;-80
2020/12/21 04:47:09;;;;;;;4.13;1.10;;;6.20;91.90;;;;;;2041485;29;20032;-80
2020/12/21 04:48:14;;;;;;;2.80;1.02;;;6.20;91.90;;;;;;2054840;28;20031;-80
2020/12/21 04:49:16;;;;;;;3.83;1.30;;;6.20;91.90;;;;;;2064029;28;20025;-80
2020/12/21 04:50:17;;;;;;;5.05;1.30;;;6.20;91.90;;;;;;2056770;28;20069;-80
2020/12/21 04:51:20;;;;;;;3.70;1.40;;;6.20;91.90;;;;;;2057185;28;20026;-80
2020/12/21 04:52:29;;;;;;;3.38;1.38;;;6.20;91.90;;;;;;2057265;28;20030;-80
2020/12/21 04:53:30;;;;;;;5.38;1.48;;;6.20;92.00;;;;;;2065184;28;20034;-81
2020/12/21 04:54:30;;;;;;;4.90;1.45;;;6.20;92.00;;;;;;2049459;28;20058;-80
2020/12/21 04:55:31;;;;;;;5.10;1.70;;;6.20;92.00;;;;;;2049358;28;20509;-81
2020/12/21 04:56:32;;;;;;;3.17;1.10;;;6.20;92.00;;;;;;2056581;28;20121;-80
2020/12/21 04:57:32;;;;;;;4.68;1.48;;;6.20;92.00;;;;;;2055292;28;20033;-80
2020/12/21 04:58:33;;;;;;;3.38;1.38;;;6.10;92.00;;;;;;2045333;29;20043;-80
2020/12/21 04:59:34;;;;;;;4.85;1.50;;;6.10;92.00;;;;;;2049906;28;20031;-81
2020/12/21 05:00:34;;;;;;;3.05;1.27;;;6.10;92.00;;;;;;2054008;28;20027;-81
2020/12/21 05:01:35;;;;;;;3.95;1.67;;;6.10;92.00;;;;;;2056571;28;20073;-81
2020/12/21 05:02:40;;;;;;;3.47;1.08;;;6.10;92.00;;;;;;2057332;28;20031;-81
2020/12/21 05:03:40;;;;;;;3.45;1.30;;;6.10;92.00;;;;;;2057051;28;20019;-81
2020/12/21 05:04:51;;;;;;;3.15;1.10;;;6.10;92.00;;;;;;2057766;28;20117;-81
2020/12/21 05:05:52;;;;;;;4.25;1.50;;;6.10;92.00;;;;;;2056209;28;20022;-81
2020/12/21 05:06:54;;;;;;;4.57;1.30;;;6.10;92.00;;;;;;2049116;28;20051;-81
2020/12/21 05:07:55;;;;;;;3.60;1.30;;;6.10;92.00;;;;;;2041502;29;20039;-80
2020/12/21 05:09:00;;;;;;;3.22;1.20;;;6.10;92.00;;;;;;2050510;28;22401;-81
2020/12/21 05:10:07;;;;;;;2.95;1.20;;;6.10;92.00;;;;;;2049057;28;20505;-80
2020/12/21 05:11:08;;;;;;;4.47;1.30;;;6.10;92.30;;;;;;2055966;28;20493;-81
2020/12/21 05:12:09;;;;;;;4.15;1.15;;;6.10;92.30;;;;;;2045289;28;20020;-81
2020/12/21 05:13:10;;;;;;;3.03;1.17;;;6.00;92.00;;;;;;2049187;28;20194;-80
2020/12/21 05:14:12;;;;;;;5.05;1.40;;;6.10;92.10;;;;;;2057725;28;20046;-80
2020/12/21 05:15:17;;;;;;;3.75;1.30;;;6.10;92.10;;;;;;2049122;28;20118;-80
2020/12/21 05:16:24;;;;;;;4.80;1.13;;;6.10;92.10;;;;;;2049407;28;20027;-81
2020/12/21 05:17:25;;;;;;;3.28;1.10;;;6.10;92.10;;;;;;2053755;28;20110;-80
2020/12/21 05:18:36;;;;;;;2.90;1.02;;;6.10;92.00;;;;;;2052685;28;21138;-80
2020/12/21 05:19:37;;;;;;;4.53;1.40;;;6.00;92.00;;;;;;2056668;28;20029;-80
2020/12/21 05:20:39;;;;;;;3.60;1.08;;;6.10;92.10;;;;;;2052563;28;20023;-81
2020/12/21 05:21:41;;;;;;;4.30;1.30;;;6.00;92.00;;;;;;2055765;28;20512;-81
2020/12/21 05:22:41;;;;;;;2.90;1.15;;;6.00;92.00;;;;;;2048991;28;20580;-81